Time;durP1;ratioP1;P1;durP2;ratioP2;P2;SDS_P1;SDS_P2;PMS_P1;PMS_P2;Temp;Humidity;BMP_temperature;BMP_pressure;BME280_temperature;BME280_humidity;BME280_pressure;Samples;Min_cycle;Max_cycle;Signal;HPM_P1;HPM_P2
2021/08/08 00:02:03;;;;;;;;;;;;;;;20.61;60.65;100659.19;5161448;27;858;-58
2021/08/08 00:04:28;;;;;;;;;;;;;;;20.51;61.50;100651.91;5160845;27;984;-58
2021/08/08 00:06:53;;;;;;;;;;;;;;;20.37;59.42;100648.28;5160832;27;1191;-58
2021/08/08 00:09:19;;;;;;;;;;;;;;;20.83;61.37;100644.72;5161770;27;1913;-55
2021/08/08 00:11:44;;;;;;;;;;;;;;;;;;5161653;27;855;-44
2021/08/08 00:14:10;;;;;;;;;;;;;;;21.52;59.28;100649.41;5160550;27;795;-55
2021/08/08 00:16:35;;;;;;;;;;;;;;;21.20;60.59;100642.88;5161675;27;783;-55
2021/08/08 00:19:00;;;;;;;;;;;;;;;20.71;62.48;100649.13;5161786;27;783;-57
2021/08/08 00:21:26;;;;;;;;;;;;;;;20.60;61.37;100638.19;5160685;27;949;-58
2021/08/08 00:23:51;;;;;;;;;;;;;;;20.58;60.24;100647.91;5161069;27;847;-50
2021/08/08 00:26:17;;;;;;;;;;;;;;;21.37;60.73;100644.19;5160780;27;1192;-57
2021/08/08 00:28:44;;;;;;;;;;;;;;;21.79;59.37;100649.66;5160623;27;1909;-56
2021/08/08 00:31:09;;;;;;;;;;;;;;;21.88;58.77;100656.09;5160547;27;831;-57
2021/08/08 00:33:35;;;;;;;;;;;;;;;21.70;58.43;100660.66;5161152;27;846;-57
2021/08/08 00:36:01;;;;;;;;;;;;;;;21.45;57.26;100656.50;5145719;27;952;-45
2021/08/08 00:38:27;;;;;;;;;;;;;;;21.23;56.02;100658.03;5140211;27;809;-57
2021/08/08 00:40:53;;;;;;;;;;;;;;;20.83;55.54;100658.53;5121652;27;1247;-56
2021/08/08 00:43:18;;;;;;;;;;;;;;;20.50;54.93;100666.81;5121684;27;1109;-57
2021/08/08 00:45:46;;;;;;;;;;;;;;;20.55;53.70;100660.38;5121032;27;843;-45
2021/08/08 00:48:15;;;;;;;;;;;;;;;20.52;53.20;100656.31;5121833;27;1149;-49
2021/08/08 00:50:42;;;;;;;;;;;;;;;20.50;52.64;100652.22;5121109;27;1980;-55
2021/08/08 00:53:11;;;;;;;;;;;;;;;20.45;52.55;100650.34;5121449;27;1109;-55
2021/08/08 00:55:38;;;;;;;;;;;;;;;20.32;52.43;100649.19;5121171;27;1105;-58
2021/08/08 00:58:07;;;;;;;;;;;;;;;20.42;52.89;100653.72;5121225;27;1160;-59
2021/08/08 01:00:36;;;;;;;;;;;;;;;20.78;55.44;100655.88;5121673;27;1129;-58
2021/08/08 01:03:04;;;;;;;;;;;;;;;21.14;57.16;100648.81;5140152;27;812;-58
2021/08/08 01:05:45;;;;;;;;;;;;;;;21.10;58.72;100650.56;5131357;27;1260;-43
2021/08/08 01:08:12;;;;;;;;;;;;;;;20.67;61.37;100659.91;5141070;27;1216;-55
2021/08/08 01:10:38;;;;;;;;;;;;;;;20.61;60.94;100661.16;5141837;27;1963;-53
2021/08/08 01:13:04;;;;;;;;;;;;;;;20.54;60.20;100652.41;5124840;27;1197;-57
2021/08/08 01:15:30;;;;;;;;;;;;;;;21.33;60.80;100659.75;5123370;27;1229;-55
2021/08/08 01:17:58;;;;;;;;;;;;;;;21.68;59.79;100654.63;5124264;27;1110;-57
2021/08/08 01:20:24;;;;;;;;;;;;;;;22.11;58.34;100651.41;5140722;27;949;-54
2021/08/08 01:22:56;;;;;;;;;;;;;;;21.47;60.27;100655.03;5141508;27;1113;-57
2021/08/08 01:25:23;;;;;;;;;;;;;;;20.99;62.12;100659.06;5123810;27;1291;-43
2021/08/08 01:27:52;;;;;;;;;;;;;;;20.74;61.24;100665.88;5141038;27;811;-58
2021/08/08 01:30:21;;;;;;;;;;;;;;;20.63;59.62;100661.66;5124507;27;1909;-44
2021/08/08 01:32:47;;;;;;;;;;;;;;;21.35;60.99;100660.28;5141136;27;1188;-55
2021/08/08 01:35:14;;;;;;;;;;;;;;;21.80;60.67;100670.69;5140721;27;1328;-57
2021/08/08 01:37:44;;;;;;;;;;;;;;;22.14;59.15;100667.38;5141165;27;1262;-52
2021/08/08 01:40:22;;;;;;;;;;;;;;;21.72;60.20;100666.69;5140730;27;1245;-44
2021/08/08 01:42:52;;;;;;;;;;;;;;;21.07;62.61;100668.59;5124231;27;1121;-57
2021/08/08 01:45:21;;;;;;;;;;;;;;;20.93;61.65;100668.59;5141147;27;802;-56
2021/08/08 01:47:49;;;;;;;;;;;;;;;20.81;59.38;100663.53;5141091;27;1231;-45
2021/08/08 01:50:20;;;;;;;;;;;;;;;21.30;61.47;100668.69;5123668;27;1975;-57
2021/08/08 01:52:45;;;;;;;;;;;;;;;21.57;61.05;100669.81;5141009;27;886;-58
2021/08/08 01:55:15;;;;;;;;;;;;;;;21.84;60.20;100666.97;5124388;27;1141;-58
2021/08/08 01:57:53;;;;;;;;;;;;;;;21.98;59.48;100674.41;5140297;27;1202;-60
2021/08/08 02:00:23;;;;;;;;;;;;;;;20.84;61.85;100671.22;5141094;27;1270;-53
2021/08/08 02:02:57;;;;;;;;;;;;;;;20.79;62.07;100685.16;5140654;27;1216;-57
2021/08/08 02:05:30;;;;;;;;;;;;;;;20.75;59.57;100684.13;5139982;27;1262;-49
2021/08/08 02:08:00;;;;;;;;;;;;;;;21.46;61.02;100688.53;5159127;27;738;-47
2021/08/08 02:10:31;;;;;;;;;;;;;;;21.92;59.65;100689.50;5139544;27;1909;-45
2021/08/08 02:12:59;;;;;;;;;;;;;;;22.06;59.04;100687.50;5140173;27;1329;-57
2021/08/08 02:15:25;;;;;;;;;;;;;;;21.53;60.64;100691.72;5140244;27;1061;-57
2021/08/08 02:17:57;;;;;;;;;;;;;;;20.97;62.64;100694.50;5140536;27;1200;-57
2021/08/08 02:20:27;;;;;;;;;;;;;;;21.03;59.94;100706.28;5158174;27;992;-57
2021/08/08 02:22:59;;;;;;;;;;;;;;;21.41;60.12;100700.53;5159110;27;847;-57
2021/08/08 02:25:28;;;;;;;;;;;;;;;21.76;60.98;100700.94;5140046;27;1526;-56
2021/08/08 02:27:54;;;;;;;;;;;;;;;22.13;59.44;100704.53;5140072;27;1325;-57
2021/08/08 02:30:32;;;;;;;;;;;;;;;21.75;60.20;100704.81;5158977;27;1972;-58
2021/08/08 02:32:58;;;;;;;;;;;;;;;21.07;62.66;100707.28;5159042;27;911;-58
2021/08/08 02:35:23;;;;;;;;;;;;;;;21.05;61.57;100711.50;5130290;27;1145;-57
2021/08/08 02:37:50;;;;;;;;;;;;;;;20.91;58.47;100719.75;5119163;27;1169;-57
2021/08/08 02:40:16;;;;;;;;;;;;;;;21.40;60.81;100729.31;5119832;27;1236;-57
2021/08/08 02:42:43;;;;;;;;;;;;;;;21.77;60.94;100727.47;5102582;27;1093;-57
2021/08/08 02:45:09;;;;;;;;;;;;;;;22.07;60.06;100733.44;5119457;27;1088;-58
2021/08/08 02:47:34;;;;;;;;;;;;;;;21.84;60.21;100738.94;5137712;27;874;-57
2021/08/08 02:50:05;;;;;;;;;;;;;;;21.12;62.66;100740.34;5118345;27;1977;-44
2021/08/08 02:52:31;;;;;;;;;;;;;;;20.95;62.33;100748.44;5102321;28;1197;-45
2021/08/08 02:55:00;;;;;;;;;;;;;;;20.71;58.77;100763.22;5119442;28;1219;-44
2021/08/08 02:57:30;;;;;;;;;;;;;;;21.35;60.03;100768.16;5118738;27;2249;-57
2021/08/08 02:59:57;;;;;;;;;;;;;;;21.59;61.68;100767.13;5119341;28;1247;-59
2021/08/08 03:02:23;;;;;;;;;;;;;;;21.64;60.02;100762.34;5137662;28;760;-56
2021/08/08 03:04:48;;;;;;;;;;;;;;;21.87;59.30;100765.19;5118470;28;1200;-46
2021/08/08 03:07:15;;;;;;;;;;;;;;;22.08;58.91;100771.09;5118769;28;1042;-56
2021/08/08 03:09:40;;;;;;;;;;;;;;;20.98;61.06;100769.94;5119377;28;1917;-49
2021/08/08 03:12:06;;;;;;;;;;;;;;;20.52;60.48;100772.31;5118859;28;1228;-44
2021/08/08 03:14:36;;;;;;;;;;;;;;;20.50;58.92;100771.78;5119222;28;1343;-57
2021/08/08 03:17:03;;;;;;;;;;;;;;;20.43;56.76;100771.34;5119025;28;1257;-54
2021/08/08 03:19:28;;;;;;;;;;;;;;;20.59;55.97;100785.72;5119709;27;1205;-56
2021/08/08 03:21:55;;;;;;;;;;;;;;;20.73;56.43;100788.59;5160383;27;813;-56
2021/08/08 03:24:21;;;;;;;;;;;;;;;21.01;56.33;100794.19;5143891;27;1227;-44
2021/08/08 03:26:48;;;;;;;;;;;;;;;21.04;56.72;100796.34;5143531;27;1313;-57
2021/08/08 03:29:14;;;;;;;;;;;;;;;21.09;57.05;100792.69;5143576;27;1984;-56
2021/08/08 03:31:42;;;;;;;;;;;;;;;21.04;57.55;100804.66;5143760;27;1259;-44
2021/08/08 03:34:08;;;;;;;;;;;;;;;21.23;57.22;100788.00;5143504;27;1227;-57
2021/08/08 03:36:34;;;;;;;;;;;;;;;21.46;56.88;100790.88;5161975;27;996;-57
2021/08/08 03:39:01;;;;;;;;;;;;;;;20.88;58.56;100795.00;5143560;27;1156;-51
2021/08/08 03:41:28;;;;;;;;;;;;;;;20.48;60.23;100796.16;5142834;27;1530;-46
2021/08/08 03:43:54;;;;;;;;;;;;;;;20.39;59.46;100810.94;5162187;27;751;-47
2021/08/08 03:46:20;;;;;;;;;;;;;;;20.62;60.19;100803.66;5143581;27;1298;-56
2021/08/08 03:48:45;;;;;;;;;;;;;;;21.41;57.84;100811.19;5161615;27;1975;-56
2021/08/08 03:51:11;;;;;;;;;;;;;;;21.66;58.04;100806.31;5161527;27;1016;-55
2021/08/08 03:53:37;;;;;;;;;;;;;;;21.70;58.35;100816.44;5142970;27;1306;-54
2021/08/08 03:56:02;;;;;;;;;;;;;;;20.96;61.20;100817.22;5142712;27;779;-55
2021/08/08 03:58:32;;;;;;;;;;;;;;;20.82;61.82;100810.84;5143201;27;1113;-47
2021/08/08 04:01:00;;;;;;;;;;;;;;;20.43;60.00;100823.03;5143613;27;1160;-44
2021/08/08 04:03:30;;;;;;;;;;;;;;;21.07;61.34;100809.59;5143146;27;1597;-49
2021/08/08 04:05:56;;;;;;;;;;;;;;;21.56;60.82;100807.34;5142661;27;1141;-51
2021/08/08 04:08:21;;;;;;;;;;;;;;;22.04;59.40;100808.84;5142443;27;1233;-54
2021/08/08 04:10:48;;;;;;;;;;;;;;;21.68;60.25;100799.31;5143146;27;1988;-52
2021/08/08 04:13:14;;;;;;;;;;;;;;;20.94;62.71;100813.94;5161258;27;818;-49
2021/08/08 04:15:40;;;;;;;;;;;;;;;20.83;62.12;100810.53;5142942;27;1115;-50
2021/08/08 04:18:05;;;;;;;;;;;;;;;20.69;58.64;100809.66;5142912;27;1159;-53
2021/08/08 04:20:31;;;;;;;;;;;;;;;21.36;60.09;100808.50;5141851;27;989;-49
2021/08/08 04:22:56;;;;;;;;;;;;;;;21.67;61.33;100813.47;5142721;27;1316;-52
2021/08/08 04:25:22;;;;;;;;;;;;;;;22.11;59.97;100805.66;5142865;27;1114;-54
2021/08/08 04:27:48;;;;;;;;;;;;;;;22.07;59.79;100816.53;5142567;27;1112;-57
2021/08/08 04:30:13;;;;;;;;;;;;;;;21.24;62.44;100810.94;5160899;27;1914;-55
2021/08/08 04:32:39;;;;;;;;;;;;;;;21.08;62.17;100819.50;5142233;27;1162;-56
2021/08/08 04:35:07;;;;;;;;;;;;;;;20.82;59.51;100819.13;5134793;27;985;-53
2021/08/08 04:37:32;;;;;;;;;;;;;;;21.47;60.27;100809.94;5121829;27;1343;-51
2021/08/08 04:39:59;;;;;;;;;;;;;;;21.93;60.99;100813.78;5121907;27;1166;-54
2021/08/08 04:42:24;;;;;;;;;;;;;;;22.26;59.76;100815.56;5140079;27;763;-56
2021/08/08 04:44:50;;;;;;;;;;;;;;;21.61;61.49;100817.47;5121069;27;1193;-59
2021/08/08 04:47:15;;;;;;;;;;;;;;;21.26;62.68;100811.47;5140118;27;793;-57
2021/08/08 04:49:42;;;;;;;;;;;;;;;20.87;61.54;100819.03;5124059;27;1910;-46
2021/08/08 04:52:07;;;;;;;;;;;;;;;21.06;58.55;100819.00;5142156;27;1280;-46
2021/08/08 04:54:33;;;;;;;;;;;;;;;21.14;58.13;100821.06;5141654;27;1101;-56
2021/08/08 04:56:59;;;;;;;;;;;;;;;21.41;59.73;100813.94;5142040;27;1337;-49
2021/08/08 04:59:25;;;;;;;;;;;;;;;21.74;61.61;100813.91;5141612;27;1144;-47
2021/08/08 05:01:50;;;;;;;;;;;;;;;22.02;61.99;100816.63;5142024;27;1439;-45
2021/08/08 05:04:16;;;;;;;;;;;;;;;22.20;60.97;100812.09;5141827;27;1224;-45
2021/08/08 05:06:41;;;;;;;;;;;;;;;21.80;62.29;100823.72;5141388;27;1406;-49
2021/08/08 05:09:07;;;;;;;;;;;;;;;21.59;62.61;100815.03;5160211;27;1905;-50
2021/08/08 05:11:34;;;;;;;;;;;;;;;21.44;58.90;100815.28;5141370;27;1333;-52
2021/08/08 05:14:00;;;;;;;;;;;;;;;21.27;57.69;100824.19;5141727;27;1196;-46
2021/08/08 05:16:28;;;;;;;;;;;;;;;21.64;58.75;100830.69;5142069;27;1366;-46
2021/08/08 05:18:53;;;;;;;;;;;;;;;21.50;58.83;100817.66;5159722;27;807;-53
2021/08/08 05:21:19;;;;;;;;;;;;;;;21.88;56.53;100820.25;5141375;27;1239;-50
2021/08/08 05:23:45;;;;;;;;;;;;;;;21.66;55.94;100823.72;5159933;27;811;-48
2021/08/08 05:26:11;;;;;;;;;;;;;;;21.46;55.76;100824.94;5159658;27;1193;-54
2021/08/08 05:28:40;;;;;;;;;;;;;;;21.69;54.50;100823.09;5141410;27;1890;-57
2021/08/08 05:31:07;;;;;;;;;;;;;;;21.39;54.83;100824.47;5141151;27;1116;-55
2021/08/08 05:33:34;;;;;;;;;;;;;;;21.40;54.62;100820.59;5140778;27;1108;-51
2021/08/08 05:35:59;;;;;;;;;;;;;;;21.51;54.13;100824.81;5159220;27;1004;-52
2021/08/08 05:38:25;;;;;;;;;;;;;;;21.27;54.58;100838.00;5141089;27;1104;-56
2021/08/08 05:40:51;;;;;;;;;;;;;;;21.30;54.44;100834.63;5140836;27;1152;-49
2021/08/08 05:43:18;;;;;;;;;;;;;;;21.25;54.58;100832.78;5141332;27;1116;-52
2021/08/08 05:45:47;;;;;;;;;;;;;;;21.43;53.76;100825.50;5140245;27;1212;-48
2021/08/08 05:48:13;;;;;;;;;;;;;;;21.78;52.53;100837.03;5140733;27;1235;-52
2021/08/08 05:50:40;;;;;;;;;;;;;;;21.91;52.04;100840.13;5140094;27;1976;-50
2021/08/08 05:53:05;;;;;;;;;;;;;;;21.40;53.49;100841.91;5141246;27;1224;-46
2021/08/08 05:55:31;;;;;;;;;;;;;;;21.32;53.64;100843.44;5140300;27;1349;-46
2021/08/08 05:57:56;;;;;;;;;;;;;;;21.02;54.39;100853.91;5159441;27;771;-45
2021/08/08 06:00:22;;;;;;;;;;;;;;;21.08;54.07;100841.63;5140880;27;1385;-45
2021/08/08 06:02:54;;;;;;;;;;;;;;;21.01;54.41;100843.97;5140336;27;1120;-46
2021/08/08 06:05:23;;;;;;;;;;;;;;;21.24;53.67;100844.13;5139965;27;1251;-44
2021/08/08 06:07:53;;;;;;;;;;;;;;;21.16;53.98;100845.66;5105586;27;1375238;-50
2021/08/08 06:10:22;;;;;;;;;;;;;;;21.08;54.10;100843.56;5134444;28;799;-50
2021/08/08 06:12:48;;;;;;;;;;;;;;;20.93;54.64;100844.66;5134966;28;748;-44
2021/08/08 06:15:13;;;;;;;;;;;;;;;21.14;53.75;100842.34;5116464;28;1249;-48
2021/08/08 06:17:39;;;;;;;;;;;;;;;20.90;54.64;100845.25;5116359;28;1242;-50
2021/08/08 06:20:05;;;;;;;;;;;;;;;20.84;54.57;100850.84;5134153;28;949;-45
2021/08/08 06:22:36;;;;;;;;;;;;;;;21.01;54.16;100843.97;5134536;28;800;-44
2021/08/08 06:25:02;;;;;;;;;;;;;;;21.37;53.38;100843.34;5115897;28;1440;-47
2021/08/08 06:27:27;;;;;;;;;;;;;;;21.12;53.78;100848.19;5134402;28;1914;-54
2021/08/08 06:29:56;;;;;;;;;;;;;;;21.15;53.58;100842.06;5115901;28;1414;-56
2021/08/08 06:32:22;;;;;;;;;;;;;;;21.24;53.47;100852.41;5115640;28;1278;-53
2021/08/08 06:34:47;;;;;;;;;;;;;;;21.19;53.76;100854.16;5115943;28;1263;-49
2021/08/08 06:37:13;;;;;;;;;;;;;;;21.09;53.98;100846.03;5116249;28;1145;-46
2021/08/08 06:39:41;;;;;;;;;;;;;;;21.10;53.96;100846.88;5115811;28;1101;-45
2021/08/08 06:42:07;;;;;;;;;;;;;;;21.28;53.53;100854.28;5115771;28;1125;-44
2021/08/08 06:44:39;;;;;;;;;;;;;;;21.05;54.13;100856.06;5116122;28;1216;-48
2021/08/08 06:47:05;;;;;;;;;;;;;;;21.12;53.88;100853.72;5115517;28;1980;-44
2021/08/08 06:49:30;;;;;;;;;;;;;;;21.14;53.80;100856.19;5115246;28;1272;-50
2021/08/08 06:51:56;;;;;;;;;;;;;;;21.19;53.63;100856.91;5114919;28;841;-45
2021/08/08 06:54:22;;;;;;;;;;;;;;;21.06;54.15;100860.47;5115428;28;1102;-44
2021/08/08 06:56:48;;;;;;;;;;;;;;;20.91;54.80;100869.00;5115642;28;1215;-44
2021/08/08 06:59:20;;;;;;;;;;;;;;;20.83;55.13;100871.34;5134007;28;783;-48
2021/08/08 07:01:46;;;;;;;;;;;;;;;20.40;55.43;100865.03;5115348;28;1224;-44
2021/08/08 07:04:11;;;;;;;;;;;;;;;20.21;57.02;100870.53;5133988;28;780;-52
2021/08/08 07:06:37;;;;;;;;;;;;;;;20.69;55.61;100864.91;5114303;28;1973;-44
2021/08/08 07:09:05;;;;;;;;;;;;;;;20.98;55.53;100867.50;5115848;28;1113;-50
2021/08/08 07:11:30;;;;;;;;;;;;;;;20.99;56.14;100868.34;5115750;28;863;-55
2021/08/08 07:13:56;;;;;;;;;;;;;;;21.09;56.33;100862.63;5115526;28;1188;-48
2021/08/08 07:16:22;;;;;;;;;;;;;;;21.03;56.84;100861.88;5115433;28;1113;-48
2021/08/08 07:18:47;;;;;;;;;;;;;;;21.02;57.30;100864.97;5103917;28;834;-47
2021/08/08 07:21:13;;;;;;;;;;;;;;;20.93;57.23;100861.22;5100395;28;1173;-45
2021/08/08 07:23:40;;;;;;;;;;;;;;;20.41;56.47;100862.00;5101579;28;1354;-45
2021/08/08 07:26:05;;;;;;;;;;;;;;;20.79;59.90;100864.78;5119559;28;1988;-46
2021/08/08 07:28:31;;;;;;;;;;;;;;;21.62;58.97;100857.88;5119921;28;846;-45
2021/08/08 07:30:56;;;;;;;;;;;;;;;21.85;59.46;100858.78;5101124;28;1299;-45
2021/08/08 07:33:22;;;;;;;;;;;;;;;21.51;61.60;100862.72;5100918;28;1129;-46
2021/08/08 07:35:48;;;;;;;;;;;;;;;21.51;61.86;100869.06;5101321;28;1168;-45
2021/08/08 07:38:14;;;;;;;;;;;;;;;21.03;59.00;100861.09;5101216;28;1224;-45
2021/08/08 07:40:39;;;;;;;;;;;;;;;21.15;57.73;100874.41;5101802;28;1181;-50
2021/08/08 07:43:06;;;;;;;;;;;;;;;21.43;58.36;100875.31;5101347;28;1386;-43
2021/08/08 07:45:32;;;;;;;;;;;;;;;21.07;58.41;100869.56;5100799;28;1914;-56
2021/08/08 07:47:58;;;;;;;;;;;;;;;20.94;56.64;100880.28;5101370;28;1195;-47
2021/08/08 07:50:23;;;;;;;;;;;;;;;20.96;54.58;100868.94;5100674;28;1113;-54
2021/08/08 07:52:49;;;;;;;;;;;;;;;20.79;53.83;100864.78;5101184;28;1165;-55
2021/08/08 07:55:15;;;;;;;;;;;;;;;20.63;53.38;100863.31;5100111;28;1455;-41
2021/08/08 07:57:41;;;;;;;;;;;;;;;20.71;52.72;100868.22;5100704;28;1208;-55
2021/08/08 08:00:07;;;;;;;;;;;;;;;20.46;52.85;100870.19;5119514;28;799;-47
2021/08/08 08:02:43;;;;;;;;;;;;;;;20.90;55.17;100853.53;5118882;28;632;-47
2021/08/08 08:05:09;;;;;;;;;;;;;;;21.11;58.06;100857.63;5100636;28;1117;-44
2021/08/08 08:07:35;;;;;;;;;;;;;;;21.66;59.02;100856.13;5100805;28;1973;-44
2021/08/08 08:10:00;;;;;;;;;;;;;;;21.78;60.02;100863.91;5100164;28;1133;-45
2021/08/08 08:12:26;;;;;;;;;;;;;;;21.41;62.49;100860.16;5100239;28;1134;-57
2021/08/08 08:14:52;;;;;;;;;;;;;;;21.26;61.90;100864.00;5100686;28;1416;-57
2021/08/08 08:17:17;;;;;;;;;;;;;;;20.59;58.46;100854.00;5100259;28;788;-43
2021/08/08 08:19:45;;;;;;;;;;;;;;;21.02;59.46;100860.25;5100533;28;1200;-56
2021/08/08 08:22:15;;;;;;;;;;;;;;;20.99;59.83;100857.28;5100456;28;1308;-44
2021/08/08 08:24:41;;;;;;;;;;;;;;;20.86;58.58;100850.59;5118169;28;1094;-55
2021/08/08 08:27:06;;;;;;;;;;;;;;;20.93;56.39;100852.94;5100139;28;1906;-44
2021/08/08 08:29:32;;;;;;;;;;;;;;;20.76;55.34;100854.31;5117802;28;759;-44
2021/08/08 08:31:57;;;;;;;;;;;;;;;20.71;54.06;100854.41;5100463;28;1106;-43
2021/08/08 08:34:23;;;;;;;;;;;;;;;20.91;52.52;100846.91;5099864;28;1126;-46
2021/08/08 08:36:48;;;;;;;;;;;;;;;20.94;52.04;100847.09;5099242;28;974;-43
2021/08/08 08:39:14;;;;;;;;;;;;;;;20.67;52.27;100842.28;5100214;28;1121;-43
2021/08/08 08:41:40;;;;;;;;;;;;;;;20.75;51.66;100852.69;5100238;28;1093;-54
2021/08/08 08:44:05;;;;;;;;;;;;;;;20.83;53.19;100846.47;5082497;28;1107;-42
2021/08/08 08:46:34;;;;;;;;;;;;;;;21.01;56.87;100853.09;5100301;28;1917;-54
2021/08/08 08:48:59;;;;;;;;;;;;;;;21.31;59.00;100856.44;5083583;28;1157;-48
2021/08/08 08:51:27;;;;;;;;;;;;;;;21.22;61.10;100849.16;5082789;28;1119;-43
2021/08/08 08:53:53;;;;;;;;;;;;;;;21.36;61.63;100844.47;5082379;28;1150;-53
2021/08/08 08:56:18;;;;;;;;;;;;;;;21.06;59.09;100845.84;5099698;28;1397;-44
2021/08/08 08:58:44;;;;;;;;;;;;;;;21.11;56.02;100851.25;5118282;28;806;-51
2021/08/08 09:01:10;;;;;;;;;;;;;;;21.81;59.78;100861.38;5118101;28;810;-44
2021/08/08 09:03:37;;;;;;;;;;;;;;;22.30;61.16;100858.13;5082338;28;1108;-41
2021/08/08 09:06:03;;;;;;;;;;;;;;;22.10;63.34;100860.19;5099713;28;1989;-42
2021/08/08 09:08:29;;;;;;;;;;;;;;;21.77;64.74;100857.56;5099572;28;1424;-58
2021/08/08 09:10:59;;;;;;;;;;;;;;;21.31;62.13;100855.63;5099620;28;1185;-43
2021/08/08 09:13:24;;;;;;;;;;;;;;;20.52;57.46;100857.97;5099122;28;741;-43
2021/08/08 09:15:50;;;;;;;;;;;;;;;21.03;57.99;100861.09;5117200;28;780;-50
2021/08/08 09:18:21;;;;;;;;;;;;;;;21.11;58.46;100859.56;5099720;28;1322;-43
2021/08/08 09:21:15;;;;;;;;;;;;;;;20.98;56.55;100852.88;5098988;28;1158;-42
2021/08/08 09:23:43;;;;;;;;;;;;;;;20.87;54.86;100851.38;5117183;28;779;-44
2021/08/08 09:26:08;;;;;;;;;;;;;;;20.67;53.93;100845.03;5099338;28;1898;-44
2021/08/08 09:28:39;;;;;;;;;;;;;;;20.72;52.90;100850.50;5117383;28;794;-48
2021/08/08 09:31:06;;;;;;;;;;;;;;;20.69;54.71;100856.63;5099219;28;1222;-43
2021/08/08 09:33:39;;;;;;;;;;;;;;;21.49;55.91;100849.22;5082205;28;1303;-51
2021/08/08 09:36:05;;;;;;;;;;;;;;;21.69;58.89;100844.44;5117000;28;1005;-45
2021/08/08 09:38:30;;;;;;;;;;;;;;;21.43;61.77;100841.31;5099283;28;759;-47
2021/08/08 09:40:57;;;;;;;;;;;;;;;21.40;62.42;100833.63;5098624;28;1057;-55
2021/08/08 09:43:29;;;;;;;;;;;;;;;21.03;59.25;100844.50;5117097;28;727;-54
2021/08/08 09:45:54;;;;;;;;;;;;;;;21.23;59.08;100842.50;5116870;28;1992;-54
2021/08/08 09:48:20;;;;;;;;;;;;;;;21.75;59.87;100837.66;5117216;28;807;-56
2021/08/08 09:50:45;;;;;;;;;;;;;;;21.68;60.03;100834.50;5116897;28;961;-49
2021/08/08 09:53:17;;;;;;;;;;;;;;;21.75;58.94;100829.34;5116485;28;804;-57
2021/08/08 09:55:42;;;;;;;;;;;;;;;21.54;58.10;100826.19;5117576;28;751;-55
2021/08/08 09:58:11;;;;;;;;;;;;;;;21.27;58.09;100821.41;5117508;28;771;-43
2021/08/08 10:00:40;;;;;;;;;;;;;;;20.83;59.02;100816.06;5116582;28;754;-42
2021/08/08 10:03:06;;;;;;;;;;;;;;;20.64;58.23;100809.72;5117167;28;842;-53
2021/08/08 10:05:38;;;;;;;;;;;;;;;20.41;57.54;100815.03;5116241;28;1112;-51
2021/08/08 10:08:06;;;;;;;;;;;;;;;20.87;58.12;100823.75;5116286;28;861;-53
2021/08/08 10:10:32;;;;;;;;;;;;;;;21.06;57.67;100820.97;5117428;28;752;-52
2021/08/08 10:13:16;;;;;;;;;;;;;;;21.31;57.25;100820.50;5098500;28;895;-44
2021/08/08 10:15:43;;;;;;;;;;;;;;;21.34;57.57;100816.28;5116454;28;798;-43
2021/08/08 10:18:08;;;;;;;;;;;;;;;21.14;58.16;100820.22;5116977;28;837;-43
2021/08/08 10:20:34;;;;;;;;;;;;;;;20.95;58.97;100818.34;5116282;28;942;-54
2021/08/08 10:23:00;;;;;;;;;;;;;;;20.79;57.88;100816.94;5116528;28;854;-46
2021/08/08 10:25:26;;;;;;;;;;;;;;;20.54;57.33;100820.91;5098756;28;1075;-52
2021/08/08 10:27:51;;;;;;;;;;;;;;;21.01;59.42;100813.56;5098002;28;1995;-52
2021/08/08 10:30:17;;;;;;;;;;;;;;;21.26;58.59;100806.75;5116446;28;835;-49
2021/08/08 10:32:42;;;;;;;;;;;;;;;21.57;57.50;100808.16;5116775;28;819;-51
2021/08/08 10:35:12;;;;;;;;;;;;;;;21.66;56.96;100803.56;5116022;28;1016;-46
2021/08/08 10:37:37;;;;;;;;;;;;;;;21.15;58.67;100808.91;5116492;28;819;-45
2021/08/08 10:40:03;;;;;;;;;;;;;;;21.01;59.09;100819.91;5116881;28;732;-49
2021/08/08 10:42:28;;;;;;;;;;;;;;;20.77;58.58;100820.03;5116522;28;803;-44
2021/08/08 10:44:54;;;;;;;;;;;;;;;20.45;58.22;100818.81;5097763;28;1313;-54
2021/08/08 10:47:29;;;;;;;;;;;;;;;21.07;60.25;100814.28;5116939;28;1909;-47
2021/08/08 10:49:55;;;;;;;;;;;;;;;21.96;58.90;100817.88;5116099;28;1005;-51
2021/08/08 10:52:20;;;;;;;;;;;;;;;21.70;60.68;100818.41;5116668;28;794;-49
2021/08/08 10:54:46;;;;;;;;;;;;;;;21.50;62.08;100812.13;5120369;28;759;-40
2021/08/08 10:57:12;;;;;;;;;;;;;;;21.25;60.49;100807.06;5120549;28;734;-49
2021/08/08 10:59:41;;;;;;;;;;;;;;;20.64;57.78;100804.19;5120124;28;736;-42
2021/08/08 11:02:10;;;;;;;;;;;;;;;21.22;59.12;100802.13;5120364;28;803;-49
2021/08/08 11:04:35;;;;;;;;;;;;;;;21.07;59.82;100801.28;5119590;28;969;-48
2021/08/08 11:07:04;;;;;;;;;;;;;;;21.50;57.20;100792.75;5120017;28;1988;-47
2021/08/08 11:09:33;;;;;;;;;;;;;;;21.30;56.88;100793.94;5120250;28;804;-48
2021/08/08 11:11:59;;;;;;;;;;;;;;;21.13;56.89;100800.06;5119980;28;818;-42
2021/08/08 11:14:25;;;;;;;;;;;;;;;21.12;56.30;100809.47;5119880;28;739;-41
2021/08/08 11:17:17;;;;;;;;;;;;;;;21.31;55.23;100800.31;5119778;28;803;-56
2021/08/08 11:19:42;;;;;;;;;;;;;;;20.96;56.24;100799.84;5114901;28;1752;-46
2021/08/08 11:22:20;;;;;;;;;;;;;;;21.02;55.69;100802.19;5119914;28;804;-44
2021/08/08 11:24:58;;;;;;;;;;;;;;;20.47;55.75;100804.72;5119499;28;1083;-40
2021/08/08 11:27:31;;;;;;;;;;;;;;;20.33;57.89;100808.22;5119814;28;1898;-51
2021/08/08 11:29:56;;;;;;;;;;;;;;;20.82;56.58;100805.31;5119669;28;794;-47
2021/08/08 11:32:26;;;;;;;;;;;;;;;20.93;57.11;100798.50;5120155;28;752;-48
2021/08/08 11:34:58;;;;;;;;;;;;;;;21.04;57.00;100801.88;5119130;28;1013;-41
2021/08/08 11:37:30;;;;;;;;;;;;;;;21.22;56.81;100802.94;5119080;28;830;-53
2021/08/08 11:39:55;;;;;;;;;;;;;;;20.92;57.98;100799.59;5120030;28;763;-41
2021/08/08 11:42:27;;;;;;;;;;;;;;;20.98;58.06;100798.38;5119315;28;768;-48
2021/08/08 11:44:53;;;;;;;;;;;;;;;20.54;57.58;100788.59;5101245;28;799;-47
2021/08/08 11:47:22;;;;;;;;;;;;;;;20.35;59.85;100797.69;5119646;28;1909;-42
2021/08/08 11:49:48;;;;;;;;;;;;;;;20.96;60.04;100794.31;5118648;28;982;-43
2021/08/08 11:52:17;;;;;;;;;;;;;;;21.54;59.60;100790.22;5119912;28;759;-41
2021/08/08 11:54:42;;;;;;;;;;;;;;;21.46;61.12;100786.19;5119320;28;739;-42
2021/08/08 11:57:09;;;;;;;;;;;;;;;21.49;62.06;100796.63;5118779;28;839;-43
2021/08/08 11:59:35;;;;;;;;;;;;;;;21.35;61.92;100790.28;5119520;28;843;-41
2021/08/08 12:02:07;;;;;;;;;;;;;;;21.07;58.54;100784.72;5119039;28;755;-41
2021/08/08 12:04:34;;;;;;;;;;;;;;;21.39;59.26;100796.00;5100174;28;975;-45
2021/08/08 12:06:59;;;;;;;;;;;;;;;21.73;59.93;100795.66;5118748;28;1987;-42
2021/08/08 12:09:25;;;;;;;;;;;;;;;21.83;60.07;100794.63;5119224;28;718;-52
2021/08/08 12:11:51;;;;;;;;;;;;;;;21.92;58.46;100791.94;5119376;28;792;-49
2021/08/08 12:14:17;;;;;;;;;;;;;;;21.71;58.00;100792.34;5118863;28;874;-48
2021/08/08 12:16:42;;;;;;;;;;;;;;;21.24;58.95;100788.81;5100585;28;1325;-52
2021/08/08 12:19:08;;;;;;;;;;;;;;;21.09;59.08;100782.44;5118713;28;854;-43
2021/08/08 12:21:37;;;;;;;;;;;;;;;20.81;58.09;100789.84;5118469;28;950;-45
2021/08/08 12:24:09;;;;;;;;;;;;;;;20.36;58.02;100793.00;5119053;28;1301;-45
2021/08/08 12:26:35;;;;;;;;;;;;;;;20.82;59.43;100789.53;5118409;28;1913;-43
2021/08/08 12:29:01;;;;;;;;;;;;;;;21.01;58.47;100791.44;5099960;28;1435;-53
2021/08/08 12:31:32;;;;;;;;;;;;;;;21.19;57.81;100792.50;5118568;28;835;-44
2021/08/08 12:33:58;;;;;;;;;;;;;;;21.56;56.84;100784.38;5118474;28;839;-44
2021/08/08 12:36:23;;;;;;;;;;;;;;;21.54;56.86;100787.44;5117935;28;966;-42
2021/08/08 12:38:50;;;;;;;;;;;;;;;20.96;58.64;100784.06;5118446;28;728;-41
2021/08/08 12:41:26;;;;;;;;;;;;;;;20.96;58.79;100788.78;5118241;28;771;-51
2021/08/08 12:43:56;;;;;;;;;;;;;;;20.50;56.98;100787.56;5118116;28;743;-45
2021/08/08 12:46:27;;;;;;;;;;;;;;;20.82;59.35;100785.97;5118034;28;1983;-41
2021/08/08 12:48:56;;;;;;;;;;;;;;;21.18;58.75;100780.63;5099338;28;856;-45
2021/08/08 12:51:22;;;;;;;;;;;;;;;21.25;58.69;100780.25;5118198;28;950;-44